Time;durP1;ratioP1;P1;durP2;ratioP2;P2;SDS_P1;SDS_P2;PMS_P1;PMS_P2;Temp;Humidity;BMP_temperature;BMP_pressure;BME280_temperature;BME280_humidity;BME280_pressure;Samples;Min_cycle;Max_cycle;Signal;HPM_P1;HPM_P2
2021/07/14 00:01:11;;;;;;;50.30;41.83;;;;;;;22.77;76.52;99605.59;5055416;28;20056;-64
2021/07/14 00:03:38;;;;;;;54.33;44.13;;;;;;;22.76;76.44;99606.81;5055136;28;20060;-64
2021/07/14 00:06:06;;;;;;;55.15;43.92;;;;;;;22.76;76.56;99603.97;5055062;28;20072;-64
2021/07/14 00:08:33;;;;;;;51.15;41.95;;;;;;;22.74;76.35;99609.25;5054882;28;20048;-64
2021/07/14 00:11:04;;;;;;;49.08;41.50;;;;;;;22.70;76.39;99610.09;5054773;28;20060;-64
2021/07/14 00:13:35;;;;;;;57.33;44.40;;;;;;;22.69;76.46;99608.47;5054876;28;20052;-64
2021/07/14 00:24:18;;;;;;;68.35;46.53;;;;;;;22.52;77.02;99594.44;5060149;28;20059;-64
2021/07/14 00:26:46;;;;;;;63.13;46.28;;;;;;;22.50;77.31;99600.53;5057461;28;20489;-64
2021/07/14 00:29:15;;;;;;;66.13;46.90;;;;;;;22.53;77.12;99598.88;5054797;28;20072;-64
2021/07/14 00:31:42;;;;;;;61.38;44.25;;;;;;;22.51;77.03;99602.16;5054936;28;20056;-64
2021/07/14 00:34:10;;;;;;;59.10;43.78;;;;;;;22.49;77.16;99598.94;5054472;28;20073;-64
2021/07/14 00:36:37;;;;;;;56.55;43.45;;;;;;;22.47;77.03;99601.38;5054566;28;20049;-64
2021/07/14 00:39:05;;;;;;;59.10;42.78;;;;;;;22.47;77.26;99599.34;5054809;28;20049;-64
2021/07/14 00:41:32;;;;;;;55.25;41.33;;;;;;;22.43;77.27;99594.91;5057424;28;20385;-64
2021/07/14 00:44:00;;;;;;;60.03;42.92;;;;;;;22.39;77.52;99594.13;5054650;28;20055;-64
2021/07/14 00:46:29;;;;;;;62.38;45.72;;;;;;;22.39;77.57;99591.31;5054363;28;20053;-64
2021/07/14 00:48:58;;;;;;;75.30;45.97;;;;;;;22.28;78.16;99589.34;5054443;28;20410;-64
2021/07/14 00:51:27;;;;;;;63.35;43.42;;;;;;;22.31;77.71;99582.03;5054546;28;20057;-64
2021/07/14 00:53:54;;;;;;;72.25;46.92;;;;;;;22.28;77.93;99592.19;5054345;28;20067;-64
2021/07/14 00:56:22;;;;;;;59.63;43.28;;;;;;;22.27;77.86;99593.38;5054231;28;20397;-64
2021/07/14 00:58:49;;;;;;;72.20;45.63;;;;;;;22.31;77.71;99584.06;5069939;28;20049;-64
2021/07/14 01:01:17;;;;;;;68.50;45.67;;;;;;;22.30;77.61;99586.09;5058917;28;20057;-64
2021/07/14 01:03:53;;;;;;;56.95;42.63;;;;;;;22.29;77.34;99585.28;5053844;28;20064;-64
2021/07/14 01:06:33;;;;;;;59.00;40.72;;;;;;;22.26;77.64;99579.63;5054073;28;20400;-64
2021/07/14 01:09:03;;;;;;;58.83;42.35;;;;;;;22.14;78.19;99582.94;5053903;28;20052;-64
2021/07/14 01:11:34;;;;;;;61.38;42.78;;;;;;;22.14;78.08;99586.56;5064906;28;20053;-64
2021/07/14 01:14:08;;;;;;;58.33;41.10;;;;;;;22.21;77.83;99582.88;5073874;28;20052;-64
2021/07/14 01:16:40;;;;;;;57.20;41.25;;;;;;;22.20;77.94;99587.75;5073525;28;20052;-64
2021/07/14 01:19:29;;;;;;;55.47;39.67;;;;;;;22.25;77.37;99589.34;5073761;28;20064;-64
2021/07/14 01:22:00;;;;;;;63.40;42.10;;;;;;;22.20;77.75;99582.06;5073917;28;20048;-64
2021/07/14 01:24:33;;;;;;;59.42;41.80;;;;;;;22.21;77.89;99580.84;5072134;28;20048;-64
2021/07/14 01:27:09;;;;;;;52.75;40.03;;;;;;;22.20;77.55;99576.41;5073552;28;20063;-64
2021/07/14 01:29:43;;;;;;;58.22;39.45;;;;;;;22.18;77.64;99573.16;5073600;28;20068;-64
2021/07/14 01:32:13;;;;;;;62.92;41.05;;;;;;;22.15;77.83;99579.66;5073918;28;20056;-64
2021/07/14 01:34:44;;;;;;;59.72;40.17;;;;;;;22.14;77.47;99571.59;5073452;28;20058;-64
2021/07/14 01:37:13;;;;;;;52.72;39.03;;;;;;;22.02;77.67;99562.31;5068407;28;20060;-64
2021/07/14 01:39:44;;;;;;;60.35;41.30;;;;;;;22.06;77.81;99573.66;5073572;28;20508;-64
2021/07/14 01:42:14;;;;;;;60.53;40.45;;;;;;;22.05;78.28;99570.00;5073091;28;20053;-64
2021/07/14 01:44:44;;;;;;;61.40;39.78;;;;;;;22.05;77.99;99567.19;5073293;28;20052;-64
2021/07/14 01:47:12;;;;;;;58.03;40.67;;;;;;;22.01;78.35;99557.88;5072774;28;20432;-64
2021/07/14 01:49:42;;;;;;;57.97;40.17;;;;;;;22.03;78.27;99560.31;5073287;28;20059;-64
2021/07/14 01:52:15;;;;;;;63.40;40.80;;;;;;;21.99;78.36;99566.00;5060437;28;20060;-64
2021/07/14 01:54:43;;;;;;;54.72;38.22;;;;;;;22.05;78.37;99569.22;5053332;28;20053;-64
2021/07/14 01:57:13;;;;;;;52.33;38.00;;;;;;;22.06;78.13;99567.97;5053351;28;20378;-64
2021/07/14 01:59:42;;;;;;;53.42;38.05;;;;;;;22.03;78.25;99560.31;5052868;28;20045;-64
2021/07/14 02:02:11;;;;;;;55.38;39.22;;;;;;;22.03;78.31;99560.31;5053094;28;20477;-64
2021/07/14 02:04:41;;;;;;;55.40;38.15;;;;;;;22.04;78.35;99561.91;5053184;28;20053;-64
2021/07/14 02:07:12;;;;;;;59.22;40.00;;;;;;;22.02;78.32;99570.84;5053047;28;20053;-64
2021/07/14 02:09:44;;;;;;;59.08;40.38;;;;;;;22.06;78.21;99553.81;5052987;28;20045;-64
2021/07/14 02:12:20;;;;;;;52.58;38.50;;;;;;;22.09;77.77;99553.78;5052700;28;20064;-64
2021/07/14 02:14:50;;;;;;;55.05;37.53;;;;;;;22.04;78.03;99547.72;5053002;28;20083;-64
2021/07/14 02:17:22;;;;;;;53.22;38.92;;;;;;;21.98;78.11;99546.56;5053199;28;20061;-64
2021/07/14 02:19:53;;;;;;;61.97;39.78;;;;;;;21.98;78.32;99544.53;5055116;28;20045;-64
2021/07/14 02:22:20;;;;;;;57.80;39.45;;;;;;;21.96;78.62;99543.34;5073159;28;20052;-64
2021/07/14 02:24:48;;;;;;;55.92;41.03;;;;;;;21.98;78.54;99540.88;5059705;28;20398;-64
2021/07/14 02:27:17;;;;;;;64.32;41.10;;;;;;;21.96;78.73;99538.47;5072929;28;20048;-64
2021/07/14 02:29:44;;;;;;;63.63;40.67;;;;;;;21.98;78.55;99538.06;5072492;28;20044;-64
2021/07/14 02:32:15;;;;;;;67.97;41.38;;;;;;;21.99;78.25;99537.66;5073284;28;20056;-64
2021/07/14 02:34:43;;;;;;;59.80;39.72;;;;;;;21.99;77.92;99537.66;5072626;28;20048;-64
2021/07/14 02:37:12;;;;;;;59.95;39.10;;;;;;;21.93;78.49;99536.47;5072926;28;20056;-64
2021/07/14 02:39:44;;;;;;;84.47;44.58;;;;;;;21.89;79.07;99539.31;5058415;28;20061;-64
2021/07/14 02:42:16;;;;;;;65.30;41.55;;;;;;;21.93;78.83;99535.66;5052490;28;20485;-64
2021/07/14 02:44:45;;;;;;;69.25;41.92;;;;;;;21.93;78.94;99538.50;5052433;28;20053;-64
2021/07/14 02:47:14;;;;;;;65.45;41.33;;;;;;;21.94;79.03;99540.91;5052434;28;20485;-64
2021/07/14 02:49:43;;;;;;;67.15;39.47;;;;;;;21.93;78.88;99538.50;5052127;28;20059;-64
2021/07/14 02:52:13;;;;;;;67.78;40.63;;;;;;;21.89;79.00;99533.66;5052438;28;20383;-64
2021/07/14 02:54:43;;;;;;;77.85;43.72;;;;;;;21.91;79.30;99533.25;5052316;28;20049;-64
2021/07/14 02:57:14;;;;;;;80.65;42.70;;;;;;;21.89;79.71;99536.47;5051952;28;20052;-64
2021/07/14 02:59:51;;;;;;;70.43;40.60;;;;;;;21.91;79.33;99535.28;5052416;28;20045;-64
2021/07/14 03:02:20;;;;;;;79.97;42.35;;;;;;;21.87;79.44;99524.75;5052466;28;20428;-64
2021/07/14 03:04:49;;;;;;;;;;;;;;;21.88;79.17;99526.38;5052656;28;20053;-64
2021/07/14 03:07:19;;;;;;;80.85;43.25;;;;;;;21.89;78.63;99530.81;5052249;28;20373;-64
2021/07/14 03:09:47;;;;;;;99.18;47.25;;;;;;;21.86;78.74;99531.66;5052152;28;20052;-64
2021/07/14 03:12:20;;;;;;;99.63;49.05;;;;;;;21.87;78.71;99529.63;5052240;28;20584;-64
2021/07/14 03:14:51;;;;;;;98.63;49.42;;;;;;;21.84;78.46;99524.78;5071618;28;20056;-64
2021/07/14 03:17:20;;;;;;;95.47;48.58;;;;;;;21.81;78.95;99529.25;5072277;28;20412;-64
2021/07/14 03:19:49;;;;;;;149.07;55.95;;;;;;;21.80;79.20;99535.34;5072263;28;20401;-64
2021/07/14 03:22:17;;;;;;;108.00;52.95;;;;;;;21.77;79.34;99517.13;5064315;28;20505;-64
2021/07/14 03:24:45;;;;;;;111.07;54.70;;;;;;;21.79;79.30;99522.38;5053840;28;20063;-64
2021/07/14 03:27:14;;;;;;;123.70;54.40;;;;;;;21.79;79.37;99523.19;5056223;28;20060;-64
2021/07/14 03:29:42;;;;;;;100.15;49.90;;;;;;;21.80;79.32;99524.81;5055639;28;20041;-64
2021/07/14 03:32:12;;;;;;;107.90;49.92;;;;;;;21.82;79.08;99530.88;5056101;28;20052;-64
2021/07/14 03:34:39;;;;;;;111.30;49.22;;;;;;;21.82;79.19;99522.38;5055706;28;20053;-64
2021/07/14 03:37:07;;;;;;;103.30;47.15;;;;;;;21.83;79.64;99523.16;5056173;28;20355;-64
2021/07/14 03:39:37;;;;;;;87.63;43.00;;;;;;;21.82;79.50;99525.19;5055514;28;20053;-64
2021/07/14 03:42:04;;;;;;;;;;;;;;;21.80;79.60;99529.69;5063928;28;20055;-64
2021/07/14 03:44:33;;;;;;;96.55;44.53;;;;;;;21.81;79.69;99534.09;5075856;28;19920;-63
2021/07/14 03:47:02;;;;;;;92.10;42.20;;;;;;;21.80;79.86;99524.81;5075594;28;20064;-63
2021/07/14 03:49:35;;;;;;;63.63;36.67;;;;;;;21.87;79.33;99523.94;5075749;28;20075;-63
2021/07/14 03:52:03;;;;;;;66.82;35.03;;;;;;;21.91;78.84;99532.44;5075273;28;20074;-63
2021/07/14 03:54:31;;;;;;;62.00;35.43;;;;;;;21.88;79.17;99532.03;5075484;28;20053;-63
2021/07/14 03:56:59;;;;;;;56.33;32.65;;;;;;;21.86;79.51;99531.66;5065009;28;20059;-63
2021/07/14 03:59:27;;;;;;;58.65;33.97;;;;;;;21.87;79.21;99524.75;5055414;28;20053;-63
2021/07/14 04:01:55;;;;;;;55.78;33.83;;;;;;;21.92;78.88;99525.53;5055703;28;20045;-63
2021/07/14 04:04:23;;;;;;;57.05;33.13;;;;;;;21.88;78.84;99526.38;5055224;28;20056;-63
2021/07/14 04:06:56;;;;;;;67.18;33.60;;;;;;;21.90;78.76;99534.44;5054975;28;20049;-63
2021/07/14 04:09:25;;;;;;;49.58;30.27;;;;;;;21.89;79.36;99521.50;5055610;28;20045;-63
2021/07/14 04:11:56;;;;;;;54.55;31.73;;;;;;;21.91;79.15;99529.59;5054819;28;20057;-63
2021/07/14 04:14:25;;;;;;;53.55;32.05;;;;;;;21.94;78.56;99523.88;5070900;28;20075;-64
2021/07/14 04:16:53;;;;;;;55.17;33.72;;;;;;;21.93;78.27;99525.13;5075228;28;20140;-64
2021/07/14 04:19:20;;;;;;;51.30;31.48;;;;;;;21.90;78.36;99525.94;5075055;28;20048;-65
2021/07/14 04:21:48;;;;;;;58.25;33.92;;;;;;;21.84;78.52;99524.78;5075211;28;20052;-64
2021/07/14 04:24:17;;;;;;;57.22;34.30;;;;;;;21.85;78.42;99526.38;5063653;28;20079;-64
2021/07/14 04:26:44;;;;;;;58.22;35.92;;;;;;;21.79;78.79;99531.69;5055258;28;20075;-64
2021/07/14 04:29:12;;;;;;;66.38;37.95;;;;;;;21.85;78.03;99518.69;5054881;28;20115;-64
2021/07/14 04:31:40;;;;;;;54.17;34.75;;;;;;;21.78;78.11;99524.41;5054780;28;20385;-63
2021/07/14 04:34:08;;;;;;;56.05;36.22;;;;;;;21.73;78.29;99518.34;5054644;28;20053;-65
2021/07/14 04:36:35;;;;;;;54.17;36.17;;;;;;;21.72;78.57;99517.56;5054548;28;20053;-63
2021/07/14 04:39:04;;;;;;;59.63;36.95;;;;;;;21.70;79.07;99514.34;5054865;28;20060;-64
2021/07/14 04:41:33;;;;;;;55.85;35.65;;;;;;;21.73;79.04;99519.16;5054645;28;20049;-64
2021/07/14 04:44:02;;;;;;;55.78;35.25;;;;;;;21.70;79.21;99522.84;5054603;28;20076;-64
2021/07/14 04:46:30;;;;;;;59.00;35.22;;;;;;;21.77;78.74;99525.63;5053964;28;20481;-64
2021/07/14 04:48:57;;;;;;;50.83;33.47;;;;;;;21.79;78.26;99522.38;5054567;28;20060;-64
2021/07/14 04:51:25;;;;;;;48.30;32.85;;;;;;;21.80;78.11;99524.81;5054435;28;20049;-64
2021/07/14 04:53:53;;;;;;;49.80;33.45;;;;;;;21.76;78.32;99524.00;5054130;28;20064;-64
2021/07/14 04:56:23;;;;;;;49.17;33.78;;;;;;;21.69;78.83;99516.38;5054357;28;20058;-64
2021/07/14 04:58:52;;;;;;;51.53;35.38;;;;;;;21.74;78.87;99514.31;5054558;28;20053;-64
2021/07/14 05:01:20;;;;;;;54.63;37.17;;;;;;;21.75;78.56;99513.88;5054164;28;20275;-64
2021/07/14 05:03:48;;;;;;;59.53;38.38;;;;;;;21.78;78.48;99518.75;5054226;28;20127;-64
2021/07/14 05:06:17;;;;;;;61.40;41.00;;;;;;;21.80;78.00;99512.66;5054452;28;20057;-64
2021/07/14 05:08:45;;;;;;;61.40;39.78;;;;;;;21.82;77.71;99511.03;5053796;28;20052;-64
2021/07/14 05:11:14;;;;;;;63.50;43.20;;;;;;;21.81;77.73;99520.72;5054838;28;20049;-64
2021/07/14 05:13:41;;;;;;;62.27;42.00;;;;;;;21.79;78.24;99519.53;5057152;28;20056;-64
2021/07/14 05:16:11;;;;;;;58.72;40.42;;;;;;;21.77;78.29;99517.13;5056242;28;20491;-64
2021/07/14 05:18:39;;;;;;;61.58;42.22;;;;;;;21.78;78.11;99521.56;5073103;28;20113;-64
2021/07/14 05:21:06;;;;;;;59.65;40.00;;;;;;;21.79;78.19;99520.34;5054339;28;20076;-64
2021/07/14 05:23:35;;;;;;;56.33;40.30;;;;;;;21.82;77.99;99521.56;5053464;28;20057;-64
2021/07/14 05:26:02;;;;;;;58.15;40.45;;;;;;;21.72;78.54;99528.09;5053392;28;20079;-64
2021/07/14 05:28:32;;;;;;;51.88;38.15;;;;;;;21.77;78.12;99528.44;5053456;28;20049;-64
2021/07/14 05:31:00;;;;;;;51.22;38.90;;;;;;;21.85;77.90;99527.19;5053385;28;20044;-64
2021/07/14 05:33:29;;;;;;;46.65;35.33;;;;;;;21.87;77.65;99529.63;5064914;28;20052;-64
2021/07/14 05:35:57;;;;;;;42.28;34.28;;;;;;;21.85;77.43;99532.88;5073414;28;20059;-64
2021/07/14 05:38:25;;;;;;;44.00;34.55;;;;;;;21.87;77.70;99536.09;5073406;28;20060;-64
2021/07/14 05:40:53;;;;;;;37.60;30.95;;;;;;;21.86;77.58;99533.69;5073343;28;20048;-64
2021/07/14 05:43:20;;;;;;;38.20;30.92;;;;;;;21.91;77.51;99540.94;5053876;28;20057;-64
2021/07/14 05:45:48;;;;;;;35.78;29.58;;;;;;;21.93;77.36;99536.47;5056553;28;20053;-64
2021/07/14 05:48:15;;;;;;;39.45;30.23;;;;;;;21.95;77.22;99547.41;5071745;28;20048;-64
2021/07/14 05:50:45;;;;;;;46.03;33.70;;;;;;;21.98;76.81;99543.72;5066991;28;20477;-64
2021/07/14 05:53:13;;;;;;;44.58;33.20;;;;;;;21.94;77.29;99545.78;5053347;28;20049;-64
2021/07/14 05:55:40;;;;;;;54.80;37.92;;;;;;;21.94;77.47;99545.78;5053053;28;20056;-64
2021/07/14 05:58:10;;;;;;;54.58;38.03;;;;;;;21.92;77.73;99539.72;5053146;28;20060;-64
2021/07/14 06:00:38;;;;;;;59.15;39.72;;;;;;;21.97;77.35;99547.78;5053444;28;20053;-64
2021/07/14 06:03:06;;;;;;;61.35;41.58;;;;;;;21.93;77.49;99544.19;5060327;28;20044;-64
2021/07/14 06:05:34;;;;;;;63.90;42.90;;;;;;;21.95;77.39;99548.19;5070332;28;20055;-64
2021/07/14 06:08:03;;;;;;;68.75;42.72;;;;;;;21.92;78.11;99545.38;5053114;28;20053;-64
2021/07/14 06:10:31;;;;;;;65.53;43.33;;;;;;;21.89;78.06;99550.66;5052883;28;20061;-64
2021/07/14 06:12:59;;;;;;;73.05;45.15;;;;;;;21.91;78.20;99552.28;5057062;28;20047;-64
2021/07/14 06:15:28;;;;;;;63.72;43.65;;;;;;;21.96;77.74;99546.16;5067371;28;20072;-64
2021/07/14 06:17:56;;;;;;;70.15;44.53;;;;;;;21.93;78.06;99541.34;5052294;28;20053;-64
2021/07/14 06:20:24;;;;;;;64.00;42.45;;;;;;;22.00;77.70;99538.44;5052857;28;20049;-64
2021/07/14 06:22:52;;;;;;;59.58;41.72;;;;;;;22.00;77.94;99549.78;5053598;28;20049;-64
2021/07/14 06:25:20;;;;;;;59.90;40.92;;;;;;;21.99;78.09;99545.34;5051629;28;20045;-64
2021/07/14 06:27:47;;;;;;;58.20;41.33;;;;;;;22.01;77.93;99542.91;5052546;28;20049;-64
2021/07/14 06:30:18;;;;;;;48.55;36.58;;;;;;;22.06;77.64;99539.63;5052155;28;20053;-64
2021/07/14 06:32:51;;;;;;;44.78;34.85;;;;;;;22.13;77.25;99542.41;5052749;28;20469;-64
2021/07/14 06:35:20;;;;;;;40.33;31.85;;;;;;;22.20;77.00;99536.69;5059463;28;20056;-64
2021/07/14 06:37:47;;;;;;;39.35;31.15;;;;;;;22.27;76.99;99535.84;5072495;28;20053;-64
2021/07/14 06:40:15;;;;;;;37.45;29.98;;;;;;;22.29;76.71;99542.72;5061862;28;20059;-64
2021/07/14 06:42:45;;;;;;;37.92;30.77;;;;;;;22.34;76.92;99540.66;5051982;28;20060;-64
2021/07/14 06:45:13;;;;;;;32.70;26.83;;;;;;;22.32;76.71;99541.06;5057339;28;20056;-64
2021/07/14 06:47:40;;;;;;;35.28;26.98;;;;;;;22.29;77.06;99539.88;5055580;28;20508;-64
2021/07/14 06:50:10;;;;;;;30.15;26.13;;;;;;;22.36;76.90;99538.22;5051791;28;20057;-64
2021/07/14 06:52:38;;;;;;;30.45;25.42;;;;;;;22.42;76.87;99548.69;5052129;28;20064;-64
2021/07/14 06:55:06;;;;;;;27.80;24.42;;;;;;;22.42;77.02;99545.84;5052429;28;20052;-64
2021/07/14 06:57:34;;;;;;;26.95;23.35;;;;;;;22.50;76.68;99552.28;5068002;28;20063;-64
2021/07/14 07:00:07;;;;;;;29.05;22.52;;;;;;;22.49;76.24;99547.84;5076551;28;20068;-64
2021/07/14 07:02:35;;;;;;;26.17;23.38;;;;;;;22.51;76.57;99548.22;5056747;28;20053;-65
2021/07/14 07:05:02;;;;;;;28.20;23.98;;;;;;;22.54;76.74;99555.09;5066910;28;20057;-64
2021/07/14 07:07:30;;;;;;;25.35;22.65;;;;;;;22.59;76.36;99551.78;5065325;28;20052;-65
2021/07/14 07:09:57;;;;;;;26.45;22.67;;;;;;;22.50;76.59;99549.44;5066930;28;20068;-65
2021/07/14 07:12:27;;;;;;;29.73;24.60;;;;;;;22.57;76.17;99552.22;5063885;28;20063;-65
2021/07/14 07:14:55;;;;;;;30.35;24.88;;;;;;;22.61;75.91;99544.47;5057472;28;20056;-65
2021/07/14 07:17:24;;;;;;;31.38;25.05;;;;;;;22.65;75.72;99547.28;5070362;28;20053;-65
2021/07/14 07:19:51;;;;;;;32.58;27.17;;;;;;;22.65;76.07;99552.97;5069562;28;20048;-65
2021/07/14 07:22:19;;;;;;;33.42;27.42;;;;;;;22.67;76.14;99542.00;5068530;28;20048;-65
2021/07/14 07:24:46;;;;;;;34.45;27.15;;;;;;;22.65;76.02;99545.25;5061164;28;20052;-65
2021/07/14 07:27:13;;;;;;;34.53;26.77;;;;;;;22.63;76.13;99549.72;5075280;28;20052;-65
2021/07/14 07:29:40;;;;;;;33.78;26.50;;;;;;;22.58;76.08;99545.31;5073729;28;20049;-65
2021/07/14 07:32:08;;;;;;;35.17;25.63;;;;;;;22.66;75.90;99552.53;5057814;28;20064;-65
2021/07/14 07:34:37;;;;;;;33.53;24.83;;;;;;;22.62;76.34;99543.25;5059084;28;20536;-65
2021/07/14 07:37:05;;;;;;;32.30;24.35;;;;;;;22.62;76.14;99546.09;5075219;28;20048;-65
2021/07/14 07:39:32;;;;;;;36.65;25.30;;;;;;;22.65;76.14;99544.44;5075538;28;20061;-65
2021/07/14 07:42:02;;;;;;;30.77;23.50;;;;;;;22.62;76.29;99539.63;5068415;28;20064;-65
2021/07/14 07:44:30;;;;;;;43.42;26.27;;;;;;;22.65;76.51;99541.59;5056024;28;20055;-65
2021/07/14 07:46:57;;;;;;;34.22;24.88;;;;;;;22.62;76.72;99540.41;5056892;28;20072;-65
2021/07/14 07:49:24;;;;;;;34.88;24.55;;;;;;;22.58;77.06;99538.84;5055986;28;20049;-65
2021/07/14 07:51:53;;;;;;;34.10;22.83;;;;;;;22.63;76.60;99536.34;5070603;28;20053;-64
2021/07/14 07:54:21;;;;;;;35.85;24.60;;;;;;;22.67;76.66;99534.28;5074123;28;20056;-64
2021/07/14 07:56:48;;;;;;;32.25;22.52;;;;;;;22.70;76.45;99536.28;5064173;28;20052;-64
2021/07/14 07:59:16;;;;;;;32.95;21.52;;;;;;;22.76;76.47;99539.47;5058590;28;20053;-65
2021/07/14 08:01:43;;;;;;;28.63;20.67;;;;;;;22.82;76.37;99534.13;5052995;28;20049;-65
2021/07/14 08:04:10;;;;;;;28.17;19.92;;;;;;;22.80;75.99;99536.59;5053153;28;20056;-65
2021/07/14 08:06:37;;;;;;;27.63;19.55;;;;;;;22.87;76.20;99542.22;5073410;28;20809;-65
2021/07/14 08:09:07;;;;;;;29.10;20.13;;;;;;;22.94;75.83;99541.34;5073778;28;20052;-65
2021/07/14 08:11:35;;;;;;;24.40;18.50;;;;;;;22.98;76.06;99545.75;5061441;28;20053;-65
2021/07/14 08:14:02;;;;;;;25.75;17.50;;;;;;;23.01;75.90;99538.44;5067072;28;20401;-65
2021/07/14 08:16:30;;;;;;;23.00;17.17;;;;;;;23.04;75.61;99544.09;5067417;28;20056;-65
2021/07/14 08:18:58;;;;;;;21.70;16.98;;;;;;;23.08;75.00;99542.00;5064906;28;20548;-65
2021/07/14 08:21:26;;;;;;;19.92;16.15;;;;;;;23.12;75.21;99544.00;5073284;28;20065;-65
2021/07/14 08:23:56;;;;;;;21.80;16.48;;;;;;;23.12;75.03;99538.31;5066177;28;20045;-65
2021/07/14 08:26:25;;;;;;;19.27;15.60;;;;;;;23.12;75.09;99544.81;5071087;28;20068;-65
2021/07/14 08:28:53;;;;;;;19.95;14.57;;;;;;;23.20;74.67;99542.69;5058778;28;20385;-65
2021/07/14 08:31:21;;;;;;;22.13;15.63;;;;;;;23.18;75.36;99542.31;5065703;28;20064;-65
2021/07/14 08:33:48;;;;;;;19.85;15.50;;;;;;;23.28;74.97;99535.69;5053745;28;20049;-65
2021/07/14 08:36:15;;;;;;;16.63;13.82;;;;;;;23.34;74.47;99528.31;5069809;28;20477;-65
2021/07/14 08:38:43;;;;;;;18.73;13.85;;;;;;;23.40;74.55;99529.47;5072731;28;20049;-65
2021/07/14 08:41:12;;;;;;;16.55;12.75;;;;;;;23.55;73.69;99527.22;5070158;28;20052;-65
2021/07/14 08:43:44;;;;;;;17.58;13.13;;;;;;;23.69;72.83;99534.78;5055364;28;20049;-64
2021/07/14 08:46:12;;;;;;;15.23;11.98;;;;;;;23.69;73.18;99534.78;5068663;28;20053;-64
2021/07/14 08:48:40;;;;;;;17.65;12.73;;;;;;;23.58;73.76;99536.94;5053265;28;20375;-64
2021/07/14 08:51:08;;;;;;;17.67;13.10;;;;;;;23.58;73.55;99534.94;5068402;28;20052;-64
2021/07/14 08:53:35;;;;;;;17.88;13.05;;;;;;;23.61;73.28;99536.09;5053859;28;20064;-64
2021/07/14 08:56:03;;;;;;;19.45;14.63;;;;;;;23.64;73.17;99532.38;5067497;28;20384;-64
2021/07/14 08:58:31;;;;;;;22.65;15.43;;;;;;;23.62;73.32;99532.00;5073274;28;20057;-64
2021/07/14 09:01:01;;;;;;;22.13;15.68;;;;;;;23.59;73.70;99524.34;5072018;28;20059;-64
2021/07/14 09:03:29;;;;;;;22.35;16.20;;;;;;;23.53;73.20;99523.22;5056931;28;20049;-64
2021/07/14 09:05:57;;;;;;;21.15;15.82;;;;;;;23.43;73.66;99528.59;5067289;28;20053;-64
2021/07/14 09:08:25;;;;;;;22.13;16.20;;;;;;;23.43;73.32;99539.16;5073527;28;20060;-64
2021/07/14 09:10:53;;;;;;;20.30;15.45;;;;;;;23.32;73.97;99535.66;5067470;28;20067;-64
2021/07/14 09:13:33;;;;;;;20.52;15.68;;;;;;;23.25;74.17;99542.25;5053321;28;20053;-64
2021/07/14 09:16:02;;;;;;;22.10;16.77;;;;;;;23.23;74.42;99541.84;5067068;28;20064;-64
2021/07/14 09:18:31;;;;;;;23.25;16.42;;;;;;;23.21;74.65;99542.28;5057236;28;20049;-64
2021/07/14 09:20:59;;;;;;;15.93;11.70;;;;;;;23.24;72.74;99549.94;5070067;28;20060;-64
2021/07/14 09:23:31;;;;;;;6.68;4.43;;;;;;;22.91;71.05;99537.31;5069501;28;20056;-64
2021/07/14 09:26:00;;;;;;;3.78;2.47;;;;;;;22.53;70.57;99545.75;5066532;28;20055;-65
2021/07/14 09:28:32;;;;;;;5.05;2.70;;;;;;;22.50;71.92;99552.28;5067065;28;20052;-65
2021/07/14 09:31:03;;;;;;;3.92;2.67;;;;;;;22.34;72.12;99554.84;5066159;28;20049;-65
2021/07/14 09:33:31;;;;;;;5.57;2.80;;;;;;;22.17;72.38;99548.06;5072470;28;20056;-65
2021/07/14 09:35:59;;;;;;;3.35;2.30;;;;;;;21.93;72.20;99544.19;5057736;28;20053;-66
2021/07/14 09:38:29;;;;;;;3.25;1.48;;;;;;;21.75;71.54;99539.41;5054871;28;20071;-66
2021/07/14 09:40:59;;;;;;;1.88;1.30;;;;;;;21.47;72.47;99535.50;5065951;28;20056;-66
2021/07/14 09:43:28;;;;;;;3.20;1.20;;;;;;;21.21;73.58;99539.63;5072752;28;20056;-66
2021/07/14 09:45:57;;;;;;;2.25;1.20;;;;;;;21.29;73.80;99546.06;5071304;28;20061;-65
2021/07/14 09:48:28;;;;;;;3.45;1.33;;;;;;;21.32;74.87;99550.13;5072258;28;20497;-65
2021/07/14 09:50:57;;;;;;;2.38;1.35;;;;;;;21.12;75.14;99552.59;5059424;28;20053;-65
2021/07/14 09:53:26;;;;;;;2.03;1.20;;;;;;;21.21;74.61;99550.16;5051859;28;20056;-65
2021/07/14 09:55:57;;;;;;;6.50;1.42;;;;;;;21.11;75.59;99551.00;5065287;28;20052;-65
2021/07/14 09:58:27;;;;;;;4.68;1.50;;;;;;;21.19;76.17;99544.09;5072170;28;20049;-66
2021/07/14 10:00:56;;;;;;;2.42;1.33;;;;;;;21.21;75.42;99550.16;5069946;28;20052;-66
2021/07/14 10:03:29;;;;;;;;;;;;;;;21.07;75.73;99546.13;5060796;28;20064;-66
2021/07/14 10:06:03;;;;;;;2.17;1.20;;;;;;;21.11;75.36;99553.81;5054759;28;19932;-66
2021/07/14 10:08:30;;;;;;;2.03;1.20;;;;;;;21.15;76.06;99551.78;5051522;28;20053;-66
2021/07/14 10:11:09;;;;;;;2.25;1.20;;;;;;;21.06;75.56;99560.69;5060042;28;20059;-66
2021/07/14 10:13:37;;;;;;;3.03;1.52;;;;;;;21.11;76.12;99556.66;5051764;28;20064;-66
2021/07/14 10:16:05;;;;;;;3.13;1.38;;;;;;;21.12;76.52;99558.25;5066168;28;20052;-66
2021/07/14 10:18:34;;;;;;;3.92;1.90;;;;;;;21.08;75.83;99552.59;5061542;28;20057;-66
2021/07/14 10:21:04;;;;;;;2.83;1.67;;;;;;;21.08;75.39;99542.09;5071058;28;20064;-66
2021/07/14 10:23:31;;;;;;;3.67;1.67;;;;;;;20.92;76.46;99546.59;5052936;28;20063;-66
2021/07/14 10:26:01;;;;;;;3.75;1.80;;;;;;;20.95;76.93;99543.72;5063044;28;20052;-66
2021/07/14 10:28:30;;;;;;;5.60;1.90;;;;;;;21.11;76.89;99540.47;5055063;28;20049;-66
2021/07/14 10:30:58;;;;;;;6.57;2.30;;;;;;;21.22;78.00;99535.56;5062451;28;20489;-66
2021/07/14 10:33:28;;;;;;;3.72;2.00;;;;;;;21.13;77.33;99531.56;5051542;28;20057;-66
2021/07/14 10:36:00;;;;;;;4.35;2.13;;;;;;;21.08;77.96;99530.78;5053181;28;20063;-66
2021/07/14 10:38:31;;;;;;;3.05;1.73;;;;;;;21.12;77.44;99536.41;5052276;28;20045;-66
2021/07/14 10:40:59;;;;;;;4.38;2.45;;;;;;;21.14;77.41;99541.66;5054075;28;20056;-66
2021/07/14 10:43:28;;;;;;;;;;;;;;;20.86;76.65;99551.84;5052133;28;20049;-66
2021/07/14 10:45:55;;;;;;;4.38;1.95;;;;;;;20.83;77.26;99545.00;5051686;28;19920;-66
2021/07/14 10:48:25;;;;;;;3.22;1.65;;;;;;;20.90;77.86;99535.66;5058133;28;20044;-66
2021/07/14 10:50:54;;;;;;;2.83;1.65;;;;;;;20.92;77.66;99540.94;5053756;28;20394;-66
2021/07/14 10:53:24;;;;;;;6.03;1.98;;;;;;;21.05;77.51;99527.94;5051887;28;20048;-65
2021/07/14 10:55:55;;;;;;;2.83;1.67;;;;;;;21.06;76.97;99530.38;5070534;28;20343;-67
2021/07/14 10:58:25;;;;;;;3.03;1.50;;;;;;;20.97;76.21;99521.47;5071056;28;20477;-65
2021/07/14 11:00:52;;;;;;;2.88;1.20;;;;;;;20.97;76.86;99535.63;5069167;28;20421;-65
2021/07/14 11:03:47;;;;;;;3.30;1.25;;;;;;;20.80;75.83;99533.66;5071772;28;20485;-65
2021/07/14 11:06:16;;;;;;;2.10;1.20;;;;;;;20.81;77.82;99535.25;5068024;28;20052;-65
2021/07/14 11:08:47;;;;;;;3.83;1.38;;;;;;;20.77;78.07;99538.13;5071708;28;20059;-65
2021/07/14 11:11:16;;;;;;;2.97;1.20;;;;;;;20.79;77.39;99532.03;5069823;28;20048;-65
2021/07/14 11:13:44;;;;;;;2.70;1.15;;;;;;;20.93;77.83;99539.69;5071540;28;20055;-65
2021/07/14 11:16:32;;;;;;;2.55;1.13;;;;;;;20.98;77.44;99527.97;5070577;28;20059;-65
2021/07/14 11:19:02;;;;;;;3.65;1.50;;;;;;;20.97;77.20;99535.63;5064580;28;20060;-65
2021/07/14 11:21:53;;;;;;;2.95;1.52;;;;;;;20.87;77.00;99528.81;5071518;28;20056;-65
2021/07/14 11:24:56;;;;;;;2.45;1.50;;;;;;;20.87;77.56;99539.28;5067070;28;20057;-65
2021/07/14 11:27:55;;;;;;;2.25;1.50;;;;;;;20.86;76.67;99537.69;5070101;28;20052;-66
2021/07/14 11:30:47;;;;;;;3.80;2.30;;;;;;;20.90;77.67;99537.69;5054523;28;20143;-66
2021/07/14 11:33:28;;;;;;;4.38;2.00;;;;;;;20.95;77.86;99531.59;5051192;28;20064;-66
2021/07/14 11:36:02;;;;;;;9.60;4.80;;;;;;;20.88;77.38;99535.25;5050088;28;20379;-66
2021/07/14 11:38:44;;;;;;;9.18;3.92;;;;;;;20.88;77.32;99540.94;5062813;28;20060;-66
2021/07/14 11:41:22;;;;;;;6.63;3.05;;;;;;;20.95;77.11;99538.06;5070268;28;20056;-66